createdAt,value
2023-01-11T00:01:55.313Z,3.53
2023-01-11T00:07:03.140Z,3.54
2023-01-11T00:12:12.754Z,3.53
2023-01-11T00:17:19.280Z,3.55
2023-01-11T00:22:27.518Z,3.56
2023-01-11T00:27:35.572Z,3.55
2023-01-11T00:32:42.085Z,3.57
2023-01-11T00:37:49.910Z,3.54
2023-01-11T00:43:13.712Z,3.58
2023-01-11T00:48:19.965Z,3.60
2023-01-11T00:53:27.787Z,3.62
2023-01-11T00:58:34.692Z,3.61
2023-01-11T01:03:41.125Z,3.63
2023-01-11T01:08:48.830Z,3.64
2023-01-11T01:14:13.045Z,3.64
2023-01-11T01:19:19.686Z,3.65
2023-01-11T01:24:29.143Z,3.66
2023-01-11T01:29:35.804Z,3.65
2023-01-11T01:34:42.116Z,3.64
2023-01-11T01:39:50.007Z,3.67
2023-01-11T01:45:03.733Z,3.67
2023-01-11T01:50:17.694Z,3.65
2023-01-11T01:55:30.850Z,3.66
2023-01-11T02:00:41.080Z,3.68
2023-01-11T02:05:48.414Z,3.68
2023-01-11T02:10:57.213Z,3.71
2023-01-11T02:16:09.513Z,3.72
2023-01-11T02:21:27.952Z,3.72
2023-01-11T02:27:27.951Z,3.75
2023-01-11T02:32:48.962Z,3.72
2023-01-11T02:38:07.124Z,3.74
2023-01-11T02:43:37.551Z,3.75
2023-01-11T02:48:56.282Z,3.77
2023-01-11T02:54:07.704Z,3.77
2023-01-11T02:59:19.029Z,3.76
2023-01-11T03:04:33.150Z,3.80
2023-01-11T03:09:52.555Z,3.80
2023-01-11T03:15:16.916Z,3.81
2023-01-11T03:20:30.706Z,3.82
2023-01-11T03:25:49.956Z,3.82
2023-01-11T03:31:04.239Z,3.84
2023-01-11T03:36:36.725Z,3.86
2023-01-11T03:41:45.323Z,3.84
2023-01-11T03:46:57.537Z,3.87
2023-01-11T03:52:10.186Z,3.88
2023-01-11T03:57:22.336Z,3.88
2023-01-11T04:02:35.934Z,3.90
2023-01-11T04:07:44.304Z,3.90
2023-01-11T04:12:51.317Z,3.91
2023-01-11T04:18:05.348Z,3.91
2023-01-11T04:23:13.244Z,3.91
2023-01-11T04:28:19.755Z,3.91
2023-01-11T04:33:26.940Z,3.93
2023-01-11T04:38:36.396Z,3.92
2023-01-11T04:43:43.542Z,3.93
2023-01-11T04:48:50.050Z,3.94
2023-01-11T04:53:57.779Z,3.95
2023-01-11T04:59:04.466Z,3.96
2023-01-11T05:04:13.324Z,3.96
2023-01-11T05:09:21.841Z,3.96
2023-01-11T05:14:29.057Z,3.96
2023-01-11T05:19:35.336Z,3.96
2023-01-11T05:24:43.943Z,3.98
2023-01-11T05:29:51.948Z,3.99
2023-01-11T05:34:58.412Z,3.99
2023-01-11T05:40:08.462Z,4.07
2023-01-11T05:45:32.280Z,4.06
2023-01-11T05:50:38.854Z,4.05
2023-01-11T05:55:56.039Z,4.03
2023-01-11T06:01:02.527Z,4.05
2023-01-11T06:06:10.434Z,4.04
2023-01-11T06:11:18.729Z,4.05
2023-01-11T06:16:26.351Z,4.07
2023-01-11T06:21:33.349Z,4.07
2023-01-11T06:26:41.731Z,4.05
2023-01-11T06:31:48.896Z,4.07
2023-01-11T06:36:55.365Z,4.06
2023-01-11T06:42:03.567Z,4.07
2023-01-11T06:47:10.031Z,4.07
2023-01-11T06:52:16.896Z,4.10
2023-01-11T06:57:25.017Z,4.11
2023-01-11T07:02:31.452Z,4.14
2023-01-11T07:07:38.258Z,4.14
2023-01-11T07:12:46.034Z,4.15
2023-01-11T07:17:57.495Z,4.20
2023-01-11T07:23:03.880Z,4.18
2023-01-11T07:28:12.877Z,4.22
2023-01-11T07:33:18.914Z,4.21
2023-01-11T07:38:25.409Z,4.22
2023-01-11T07:43:33.845Z,4.22
2023-01-11T07:48:40.130Z,4.22
2023-01-11T07:53:46.320Z,4.26
2023-01-11T07:58:54.333Z,4.27
2023-01-11T08:04:01.186Z,4.26
2023-01-11T08:09:07.861Z,4.27
2023-01-11T08:14:33.336Z,4.30
2023-01-11T08:19:39.793Z,4.33
2023-01-11T08:24:46.449Z,4.36
2023-01-11T08:29:54.524Z,4.37
2023-01-11T08:35:00.920Z,4.40
2023-01-11T08:40:12.945Z,4.40
2023-01-11T08:45:21.290Z,4.43
2023-01-11T08:50:28.319Z,4.45
2023-01-11T08:55:35.042Z,4.48
2023-01-11T09:00:45.306Z,4.48
2023-01-11T09:05:52.280Z,4.49
2023-01-11T09:11:02.850Z,4.48
2023-01-11T09:16:11.109Z,4.48
2023-01-11T09:21:17.641Z,4.50
2023-01-11T09:26:24.021Z,4.54
2023-01-11T09:31:32.125Z,4.56
2023-01-11T09:36:40.519Z,4.57
2023-01-11T09:42:32.661Z,4.59
2023-01-11T09:47:44.066Z,4.64
2023-01-11T09:52:55.141Z,4.63
2023-01-11T09:58:39.409Z,4.63
2023-01-11T10:04:41.110Z,4.64
2023-01-11T10:18:40.286Z,4.68
2023-01-11T10:21:09.903Z,4.73
2023-01-11T10:26:28.637Z,4.72
2023-01-11T10:31:49.603Z,4.72
2023-01-11T10:37:24.231Z,4.71
2023-01-11T10:42:35.454Z,4.75
2023-01-11T10:47:46.837Z,4.81
2023-01-11T10:53:03.187Z,4.82
2023-01-11T10:58:28.586Z,4.80
2023-01-11T11:04:09.269Z,4.82
2023-01-11T11:09:26.486Z,4.79
2023-01-11T11:14:41.237Z,4.79
2023-01-11T11:19:47.845Z,4.84
2023-01-11T11:25:05.450Z,4.85
2023-01-11T11:30:14.979Z,4.83
2023-01-11T11:35:39.052Z,4.90
2023-01-11T11:40:57.501Z,4.87
2023-01-11T11:46:06.569Z,4.92
2023-01-11T11:51:27.022Z,5.01
2023-01-11T11:56:38.411Z,5.04
2023-01-11T12:01:48.689Z,5.01
2023-01-11T12:07:10.067Z,5.03
2023-01-11T12:12:26.899Z,5.04
2023-01-11T12:17:35.705Z,5.08
2023-01-11T12:22:42.178Z,5.10
2023-01-11T12:28:03.577Z,5.09
2023-01-11T12:33:30.233Z,5.03
2023-01-11T12:38:49.319Z,5.01
2023-01-11T12:44:06.548Z,4.96
2023-01-11T12:49:32.957Z,4.93
2023-01-11T12:55:02.431Z,4.91
2023-01-11T13:00:44.082Z,4.87
2023-01-11T13:06:03.579Z,4.85
2023-01-11T13:11:35.431Z,4.80
2023-01-11T13:16:52.783Z,4.73
2023-01-11T13:22:04.897Z,4.63
2023-01-11T13:27:24.939Z,4.55
2023-01-11T13:32:38.021Z,4.48
2023-01-11T13:37:53.673Z,4.43
2023-01-11T13:43:07.179Z,4.37
2023-01-11T13:48:23.625Z,4.27
2023-01-11T13:53:43.582Z,4.20
2023-01-11T13:58:57.285Z,4.17
2023-01-11T14:04:13.070Z,4.12
2023-01-11T14:09:45.680Z,4.08
2023-01-11T14:15:19.680Z,4.01
2023-01-11T14:20:36.875Z,3.93
2023-01-11T14:26:07.725Z,3.87
2023-01-11T14:31:50.081Z,3.81
2023-01-11T14:37:47.907Z,3.80
2023-01-11T14:43:41.154Z,3.73
2023-01-11T14:49:03.250Z,3.64
2023-01-11T14:54:17.468Z,3.59
2023-01-11T14:59:44.394Z,3.46
2023-01-11T15:05:10.415Z,3.48
2023-01-11T15:10:51.015Z,3.40
2023-01-11T15:16:29.417Z,3.38
2023-01-11T15:21:42.373Z,3.30
2023-01-11T15:26:52.552Z,3.29
2023-01-11T15:32:19.794Z,3.25
2023-01-11T15:37:50.286Z,3.27
2023-01-11T15:44:00.344Z,3.20
2023-01-11T15:49:51.516Z,3.23
2023-01-11T15:55:48.633Z,3.21
2023-01-11T16:01:25.194Z,3.17
2023-01-11T16:06:48.279Z,3.14
2023-01-11T16:12:15.827Z,3.15
2023-01-11T16:17:26.323Z,3.10
2023-01-11T16:22:33.571Z,3.09
2023-01-11T16:27:40.775Z,3.06
2023-01-11T16:32:48.927Z,3.08
2023-01-11T16:37:59.226Z,3.07
2023-01-11T16:43:18.794Z,3.08
2023-01-11T16:48:28.860Z,3.05
2023-01-11T16:53:38.073Z,3.02
2023-01-11T16:59:04.518Z,3.06
2023-01-11T17:04:31.425Z,3.08
2023-01-11T17:09:38.504Z,3.09
2023-01-11T17:15:00.490Z,3.11
2023-01-11T17:20:21.571Z,3.12
2023-01-11T17:25:43.511Z,3.17
2023-01-11T17:30:54.019Z,3.16
2023-01-11T17:36:03.463Z,3.14
2023-01-11T17:41:32.428Z,3.14
2023-01-11T17:46:41.178Z,3.15
2023-01-11T17:51:49.207Z,3.16
2023-01-11T17:57:01.926Z,3.13
2023-01-11T18:02:15.549Z,3.13
2023-01-11T18:07:23.627Z,3.12
2023-01-11T18:12:34.036Z,3.10
2023-01-11T18:17:42.785Z,3.11
2023-01-11T18:23:05.237Z,3.14
2023-01-11T18:28:30.627Z,3.11
2023-01-11T18:33:42.137Z,3.06
2023-01-11T18:38:51.119Z,3.05
2023-01-11T18:43:58.909Z,3.08
2023-01-11T18:49:06.811Z,3.03
2023-01-11T18:54:18.938Z,3.05
2023-01-11T18:59:26.032Z,3.04
2023-01-11T19:04:33.535Z,3.04
2023-01-11T19:09:42.678Z,3.02
2023-01-11T19:14:51.393Z,3.02
2023-01-11T19:19:59.870Z,3.05
2023-01-11T19:25:10.688Z,3.00
2023-01-11T19:30:19.208Z,3.01
2023-01-11T19:35:26.872Z,3.02
2023-01-11T19:40:36.895Z,3.03
2023-01-11T19:45:44.721Z,3.03
2023-01-11T19:50:52.287Z,3.05
2023-01-11T19:56:05.710Z,3.03
2023-01-11T20:01:15.137Z,3.00
2023-01-11T20:06:24.089Z,3.05
2023-01-11T20:11:33.167Z,3.04
2023-01-11T20:16:39.909Z,3.03
2023-01-11T20:21:50.214Z,3.05
2023-01-11T20:27:00.497Z,3.00
2023-01-11T20:32:31.100Z,3.04
2023-01-11T20:37:36.431Z,2.99
2023-01-11T20:42:45.798Z,3.03
2023-01-11T20:47:53.313Z,3.04
2023-01-11T20:53:01.414Z,3.04
2023-01-11T20:58:10.311Z,3.05
2023-01-11T21:03:20.202Z,3.05
2023-01-11T21:08:27.246Z,3.08
2023-01-11T21:13:35.668Z,3.08
2023-01-11T21:18:44.122Z,3.09
2023-01-11T21:23:51.089Z,3.11
2023-01-11T21:29:01.395Z,3.12
2023-01-11T21:34:08.309Z,3.15
2023-01-11T21:39:17.010Z,3.16
2023-01-11T21:44:30.077Z,3.16
2023-01-11T21:49:36.552Z,3.17
2023-01-11T21:54:43.737Z,3.20
2023-01-11T21:59:54.297Z,3.22
2023-01-11T22:05:00.800Z,3.25
2023-01-11T22:10:08.135Z,3.27
2023-01-11T22:15:16.123Z,3.26
2023-01-11T22:20:23.991Z,3.27
2023-01-11T22:25:30.528Z,3.28
2023-01-11T22:30:38.588Z,3.31
2023-01-11T22:35:54.895Z,3.33
2023-01-11T22:41:02.177Z,3.32
2023-01-11T22:46:14.275Z,3.36
2023-01-11T22:51:23.755Z,3.37
2023-01-11T22:56:30.941Z,3.40
2023-01-11T23:01:40.766Z,3.42
2023-01-11T23:06:47.629Z,3.42
2023-01-11T23:12:11.771Z,3.44
2023-01-11T23:17:19.711Z,3.44
2023-01-11T23:22:25.920Z,3.45
2023-01-11T23:27:32.211Z,3.46
2023-01-11T23:32:42.635Z,3.47
2023-01-11T23:37:51.070Z,3.46
2023-01-11T23:43:01.689Z,3.48
2023-01-11T23:48:09.885Z,3.47
2023-01-11T23:53:18.052Z,3.51
2023-01-11T23:58:24.544Z,3.52
